Thunder radar more information blitzortung!


Radar de pluja more information rain snow radar


Visita la nostra xarxa de llocs de meteo:

Template documentation
and downloads

And another site



No particular awareness of the weather is required.    There are no Weather-warnings

Pagina Historial Weather Underground text

Diari Resum Juny 19, 2016 Unitats:  Mètric    Imperial   Tant
« Previous Dia
SegĂźent Dia »
Diari Setmana Mensual Anual Personalitzada
  Maxima: Minima: Media:
Temperatura: -17.8 °C -11.6 °C -6.1 °C
Punt de rosada: -17.8 °C -15.3 °C -13.6 °C
Humitat: Humidity % 27 % 44 %
Wind Speed: 0 km/h 0 km/h 7.9 km/h
RĂ fegues de vent: 0 km/h - -
Vent:- - SSE
Pression baro: 0 hPa 34496.6 hPa -
Precipitacions: 0 mm    
Historical Graphs
 
 
Dades de taula per Juny 19, 2016
Temps Temperatura Punt de rosada Pression baro Vent Wind Speed RĂ fegues de vent Humitat Rainfall Rate (Hourly)
-17.8 °C -17.8 °C 0 hPa Calm     Humidity % 0 mm
00:00 -9.5 °C -13.7 °C 34669.3 hPa NE 2.6 km/h 2.6 km/h 61 % 0 mm
00:05 -9.5 °C -13.7 °C 34669.3 hPa NE 2.6 km/h 2.6 km/h 61 % 0 mm
00:10 -9.5 °C -13.7 °C 34669.3 hPa NE 3.7 km/h 3.7 km/h 61 % 0 mm
00:15 -9.5 °C -13.7 °C 34669.3 hPa NE 3.7 km/h 3.7 km/h 61 % 0 mm
00:25 -11.6 °C -14.3 °C 34635.4 hPa West 5.1 km/h 5.1 km/h 72 % 0 mm
00:35 -11.6 °C -14.4 °C 34669.3 hPa West 5.1 km/h 5.1 km/h 71 % 0 mm
00:45 -11.6 °C -14.3 °C 34669.3 hPa West 5.1 km/h 5.1 km/h 72 % 0 mm
00:55 -11.6 °C -14.3 °C 34669.3 hPa West 5.1 km/h 5.1 km/h 72 % 0 mm
01:05 -11.5 °C -14.3 °C 34669.3 hPa West 5.1 km/h 5.1 km/h 71 % 0 mm
01:15 -11.5 °C -14.3 °C 34635.4 hPa West 5.1 km/h 5.1 km/h 71 % 0 mm
01:25 -11.4 °C -14.4 °C 34635.4 hPa West 5.1 km/h 5.1 km/h 70 % 0 mm
01:35 -11.4 °C -14.4 °C 34669.3 hPa West 5.1 km/h 5.1 km/h 70 % 0 mm
01:45 -11.4 °C -14.4 °C 34635.4 hPa West 5.1 km/h 5.1 km/h 70 % 0 mm
01:55 -11.3 °C -14.4 °C 34635.4 hPa West 5.1 km/h 5.1 km/h 69 % 0 mm
02:05 -11.2 °C -14.2 °C 34669.3 hPa West 5.1 km/h 5.1 km/h 69 % 0 mm
02:15 -10.8 °C -14.1 °C 34669.3 hPa West 5.1 km/h 5.1 km/h 67 % 0 mm
02:25 -10.5 °C -13.9 °C 34669.3 hPa West 5.1 km/h 5.1 km/h 66 % 0 mm
02:35 -10.2 °C -13.8 °C 34669.3 hPa West 5.1 km/h 5.1 km/h 65 % 0 mm
02:45 -10 °C -13.7 °C 34669.3 hPa West 5.1 km/h 5.1 km/h 64 % 0 mm
02:55 -9.8 °C -13.6 °C 34669.3 hPa West 5.1 km/h 5.1 km/h 64 % 0 mm
03:05 -9.6 °C -13.5 °C 34669.3 hPa West 5.1 km/h 5.1 km/h 63 % 0 mm
03:15 -9.4 °C -13.4 °C 34669.3 hPa West 5.1 km/h 5.1 km/h 62 % 0 mm
03:25 -9.1 °C -13.3 °C 34669.3 hPa West 5.1 km/h 5.1 km/h 61 % 0 mm
03:35 -9.1 °C -13.4 °C 34669.3 hPa NNE 7.7 km/h 7.7 km/h 60 % 0 mm
03:45 -9.1 °C -13.6 °C 34669.3 hPa NE 7.7 km/h 10.3 km/h 59 % 0 mm
03:55 -8.8 °C -13.4 °C 34669.3 hPa ENE 7.7 km/h 7.7 km/h 58 % 0 mm
04:05 -8.8 °C -13.4 °C 34669.3 hPa NE 7.7 km/h 7.7 km/h 58 % 0 mm
04:15 -8.6 °C -13.3 °C 34669.3 hPa NE 7.7 km/h 12.9 km/h 57 % 0 mm
04:25 -8.4 °C -13.4 °C 34669.3 hPa NE 7.7 km/h 12.9 km/h 56 % 0 mm
04:35 -8.3 °C -13.4 °C 34669.3 hPa NE 7.7 km/h 12.9 km/h 55 % 0 mm
04:45 -8 °C -13.1 °C 34669.3 hPa NE 7.7 km/h 10.3 km/h 55 % 0 mm
04:55 -7.8 °C -13.1 °C 34669.3 hPa NE 7.7 km/h 10.3 km/h 54 % 0 mm
05:05 -7.6 °C -12.9 °C 34669.3 hPa NE 5.1 km/h 10.3 km/h 53 % 0 mm
05:15 -7.2 °C -12.8 °C 34669.3 hPa NE 2.6 km/h 5.1 km/h 52 % 0 mm
05:25 -6.9 °C -12.7 °C 34669.3 hPa NE 12.9 km/h 12.9 km/h 51 % 0 mm
05:35 -6.7 °C -12.6 °C 34669.3 hPa NE 5.1 km/h 10.3 km/h 51 % 0 mm
05:45 -6.6 °C -12.6 °C 34669.3 hPa NE 12.9 km/h 15.6 km/h 50 % 0 mm
05:55 -6.4 °C -12.4 °C 34669.3 hPa ENE 5.1 km/h 15.6 km/h 50 % 0 mm
11:00 -6.1 °C -12.3 °C 34635.4 hPa ENE 6.3 km/h 6.3 km/h 49 % 0 mm
11:05 -6.1 °C -12.4 °C 34635.4 hPa ENE 6.3 km/h 6.3 km/h 48 % 0 mm
11:10 -5.9 °C -12.3 °C 34635.4 hPa ENE 6.3 km/h 6.3 km/h 48 % 0 mm
11:12 -5.8 °C -12.2 °C 34635.4 hPa ENE 6.3 km/h 6.3 km/h 48 % 0 mm
11:17 -5.7 °C -12.2 °C 34635.4 hPa ENE 6.3 km/h 6.3 km/h 47 % 0 mm
11:22 -5.5 °C -12.1 °C 34635.4 hPa ENE 6.3 km/h 6.3 km/h 47 % 0 mm
11:27 -5.5 °C -12.4 °C 34635.4 hPa ENE 6.3 km/h 6.3 km/h 45 % 0 mm
11:32 -5.4 °C -12.4 °C 34635.4 hPa ENE 6.3 km/h 6.3 km/h 45 % 0 mm
11:37 -5.3 °C -12.4 °C 34635.4 hPa ENE 6.3 km/h 6.3 km/h 44 % 0 mm
11:42 -5.1 °C -12.4 °C 34635.4 hPa ENE 6.3 km/h 6.3 km/h 43 % 0 mm
11:47 -4.8 °C -12.4 °C 34635.4 hPa ENE 6.3 km/h 6.3 km/h 42 % 0 mm
11:52 -4.8 °C -12.4 °C 34635.4 hPa ENE 6.3 km/h 6.3 km/h 42 % 0 mm
11:57 -4.8 °C -12.4 °C 34635.4 hPa ENE 6.3 km/h 6.3 km/h 42 % 0 mm
12:02 -4.8 °C -12.4 °C 34635.4 hPa ENE 6.3 km/h 6.3 km/h 42 % 0 mm
12:07 -4.8 °C -12.4 °C 34635.4 hPa ENE 6.3 km/h 6.3 km/h 42 % 0 mm
12:12 -4.8 °C -12.4 °C 34635.4 hPa ENE 6.3 km/h 6.3 km/h 42 % 0 mm
12:17 -4.8 °C -12.4 °C 34635.4 hPa ENE 6.3 km/h 6.3 km/h 42 % 0 mm
12:22 -4.8 °C -12.4 °C 34635.4 hPa ENE 6.3 km/h 6.3 km/h 42 % 0 mm
12:27 -4.8 °C -12.4 °C 34635.4 hPa ENE 6.3 km/h 6.3 km/h 42 % 0 mm
12:32 -3.7 °C -12.4 °C 34635.4 hPa ESE 9 km/h 9 km/h 37 % 0 mm
12:37 -3.8 °C -13 °C 34635.4 hPa SW 6.3 km/h 10.3 km/h 35 % 0 mm
12:42 -3.9 °C -13.1 °C 34635.4 hPa NE 11.9 km/h 11.9 km/h 35 % 0 mm
12:47 -4.1 °C -13 °C 34635.4 hPa South 3.1 km/h 3.7 km/h 36 % 0 mm
12:52 -3.9 °C -13.3 °C 34635.4 hPa ESE 17.9 km/h 17.9 km/h 34 % 0 mm
12:57 -4.3 °C -13.4 °C 34635.4 hPa ESE 14 km/h 14 km/h 35 % 0 mm
13:02 -4.3 °C -13.4 °C 34635.4 hPa ESE 17.9 km/h 17.9 km/h 35 % 0 mm
13:07 -4.3 °C -13.4 °C 34635.4 hPa SSW 17.9 km/h 17.9 km/h 35 % 0 mm
13:12 -4.3 °C -13.4 °C 34635.4 hPa ESE 11.9 km/h 11.9 km/h 35 % 0 mm
13:17 -4.3 °C -13.4 °C 34635.4 hPa ESE 20.9 km/h 20.9 km/h 35 % 0 mm
13:22 -3.9 °C -13.6 °C 34635.4 hPa SSE 15 km/h 15 km/h 33 % 0 mm
13:27 -4.2 °C -13.8 °C 34635.4 hPa SSE 20.9 km/h 20.9 km/h 33 % 0 mm
13:32 -4.2 °C -13.8 °C 34635.4 hPa SE 11.9 km/h 11.9 km/h 33 % 0 mm
13:37 -3.7 °C -13.4 °C 34635.4 hPa SW 11.9 km/h 11.9 km/h 33 % 0 mm
13:42 -3.4 °C -13.7 °C 34635.4 hPa ESE 15 km/h 15 km/h 31 % 0 mm
13:47 -3.5 °C -13.7 °C 34635.4 hPa ESE 17.9 km/h 17.9 km/h 31 % 0 mm
13:52 -3.9 °C -13.8 °C 34635.4 hPa SSE 15 km/h 15 km/h 32 % 0 mm
13:57 -3.6 °C -14.1 °C 34601.5 hPa SSE 15 km/h 15 km/h 30 % 0 mm
14:02 -3.3 °C -13.8 °C 34601.5 hPa SW 25.4 km/h 25.4 km/h 30 % 0 mm
14:07 -3.1 °C -13.7 °C 34601.5 hPa South 17.9 km/h 17.9 km/h 30 % 0 mm
14:12 -2.8 °C -13.4 °C 34601.5 hPa SW 9.3 km/h 9.3 km/h 30 % 0 mm
14:17 -3.3 °C -14.1 °C 34601.5 hPa ESE 9 km/h 9.3 km/h 29 % 0 mm
14:22 -3.3 °C -14.1 °C 34601.5 hPa SW 11.9 km/h 11.9 km/h 29 % 0 mm
14:27 -2.9 °C -13.7 °C 34601.5 hPa South 15 km/h 15 km/h 29 % 0 mm
14:32 -3.4 °C -14.5 °C 34601.5 hPa ESE 26.9 km/h 26.9 km/h 28 % 0 mm
14:37 -3.2 °C -14 °C 34601.5 hPa West 6 km/h 6 km/h 29 % 0 mm
14:42 -3 °C -13.8 °C 34601.5 hPa ESE 14.5 km/h 14.5 km/h 29 % 0 mm
14:47 -3.3 °C -14.1 °C 34601.5 hPa SSW 15 km/h 15 km/h 29 % 0 mm
14:52 -2.9 °C -13.7 °C 34601.5 hPa SW 11.9 km/h 11.9 km/h 29 % 0 mm
14:57 -2.7 °C -14.2 °C 34601.5 hPa WSW 20.9 km/h 20.9 km/h 27 % 0 mm
15:02 -2.6 °C -14.1 °C 34601.5 hPa SSW 12.7 km/h 12.7 km/h 27 % 0 mm
15:07 -2.3 °C -13.6 °C 34601.5 hPa SW 9 km/h 9 km/h 28 % 0 mm
15:12 -2.1 °C -13.7 °C 34601.5 hPa South 6 km/h 6 km/h 27 % 0 mm
15:17 -2.4 °C -13.7 °C 34601.5 hPa ESE 17.9 km/h 17.9 km/h 28 % 0 mm
15:22 -2.4 °C -13.7 °C 34601.5 hPa ESE 10.3 km/h 10.3 km/h 28 % 0 mm
15:27 -2.9 °C -14 °C 34567.7 hPa ESE 23.8 km/h 23.8 km/h 28 % 0 mm
15:37 -3 °C -13.8 °C 34567.7 hPa South 20.9 km/h 20.9 km/h 29 % 0 mm
15:42 -2.7 °C -13.9 °C 34567.7 hPa SW 17.9 km/h 17.9 km/h 28 % 0 mm
15:47 -2.9 °C -14 °C 34567.7 hPa SE 17.9 km/h 17.9 km/h 28 % 0 mm
15:52 -3.1 °C -14.2 °C 34567.7 hPa ESE 15 km/h 15 km/h 28 % 0 mm
15:57 -3.1 °C -14.2 °C 34533.8 hPa ESE 17.9 km/h 17.9 km/h 28 % 0 mm
16:02 -3.2 °C -14.3 °C 34533.8 hPa WNW 15 km/h 15 km/h 28 % 0 mm
16:07 -2.7 °C -13.6 °C 34533.8 hPa WSW 11.9 km/h 11.9 km/h 29 % 0 mm
16:12 -2.7 °C -13.8 °C 34567.7 hPa ENE 15 km/h 15 km/h 28 % 0 mm
16:17 -2.7 °C -13.9 °C 34567.7 hPa South 20.9 km/h 20.9 km/h 28 % 0 mm
16:37 -3.1 °C -14.2 °C 34567.7 hPa ESE 20.9 km/h 20.9 km/h 28 % 0 mm
16:42 -3.1 °C -14.2 °C 34533.8 hPa SSW 15 km/h 15 km/h 28 % 0 mm
16:47 -3.2 °C -14.3 °C 34533.8 hPa East 15 km/h 15 km/h 28 % 0 mm
16:58 -3.2 °C -14.3 °C 34533.8 hPa SE 20.9 km/h 20.9 km/h 28 % 0 mm
17:03 -2.8 °C -13.9 °C 34533.8 hPa South 9 km/h 9 km/h 28 % 0 mm
17:08 -2.4 °C -13.6 °C 34533.8 hPa WNW 15 km/h 15 km/h 28 % 0 mm
17:13 -2.6 °C -13.8 °C 34533.8 hPa SW 17.9 km/h 17.9 km/h 28 % 0 mm
17:18 -2.4 °C -13.6 °C 34533.8 hPa West 12.2 km/h 12.2 km/h 28 % 0 mm
17:23 -2.4 °C -13.9 °C 34533.8 hPa South 15 km/h 15 km/h 27 % 0 mm
17:28 -2.7 °C -14.2 °C 34533.8 hPa SW 20.9 km/h 20.9 km/h 27 % 0 mm
17:33 -3.1 °C -14.5 °C 34533.8 hPa SSW 16.1 km/h 16.1 km/h 27 % 0 mm
17:38 -2.9 °C -14.3 °C 34533.8 hPa WSW 9 km/h 9 km/h 27 % 0 mm
17:43 -2.7 °C -13.8 °C 34533.8 hPa WSW 17.9 km/h 17.9 km/h 28 % 0 mm
17:48 -3 °C -14.4 °C 34533.8 hPa South 23.8 km/h 23.8 km/h 27 % 0 mm
17:53 -3.1 °C -14.2 °C 34533.8 hPa SSW 11.9 km/h 11.9 km/h 28 % 0 mm
17:58 -3.5 °C -14.8 °C 34533.8 hPa WSW 23.8 km/h 23.8 km/h 27 % 0 mm
18:03 -3.6 °C -14.9 °C 34533.8 hPa SW 22 km/h 22 km/h 27 % 0 mm
18:08 -3.8 °C -15.1 °C 34533.8 hPa WSW 17.9 km/h 17.9 km/h 27 % 0 mm
18:13 -3.9 °C -15.2 °C 34533.8 hPa SW 17.9 km/h 17.9 km/h 27 % 0 mm
18:18 -3.8 °C -15.1 °C 34533.8 hPa South 15 km/h 15 km/h 27 % 0 mm
18:23 -3.9 °C -14.9 °C 34533.8 hPa SW 17.9 km/h 17.9 km/h 28 % 0 mm
18:28 -3.9 °C -14.7 °C 34533.8 hPa SW 20.9 km/h 20.9 km/h 29 % 0 mm
18:33 -3.9 °C -14.9 °C 34533.8 hPa WSW 20.9 km/h 20.9 km/h 28 % 0 mm
18:38 -3.6 °C -14.6 °C 34533.8 hPa WSW 20.9 km/h 20.9 km/h 28 % 0 mm
18:43 -3.8 °C -14.8 °C 34533.8 hPa SW 11.9 km/h 11.9 km/h 28 % 0 mm
18:48 -3.8 °C -14.8 °C 34533.8 hPa SSE 15 km/h 15 km/h 28 % 0 mm
18:53 -4.1 °C -14.8 °C 34533.8 hPa SW 22 km/h 22 km/h 29 % 0 mm
18:58 -4.2 °C -14.8 °C 34496.6 hPa SW 15 km/h 15 km/h 29 % 0 mm
19:03 -4.1 °C -14.8 °C 34496.6 hPa SW 3.7 km/h 6.8 km/h 29 % 0 mm
19:08 -4.2 °C -14.9 °C 34496.6 hPa SW 3.7 km/h 6.8 km/h 29 % 0 mm
19:13 -4.3 °C -14.9 °C 34496.6 hPa SW 3.7 km/h 6.8 km/h 29 % 0 mm
19:18 -4.3 °C -15.2 °C 34496.6 hPa SSW 9 km/h 9.8 km/h 28 % 0 mm
19:20 -7.7 °C -12.6 °C 34635.4 hPa ENE 5.1 km/h 5.1 km/h 57 % 0 mm
19:23 -4.3 °C -14.9 °C 34496.6 hPa SW 9 km/h 9 km/h 29 % 0 mm
19:28 -4.3 °C -14.9 °C 34496.6 hPa Calm   8 km/h 29 % 0 mm
19:30 -7.7 °C -12.4 °C 34635.4 hPa ENE 5.1 km/h 5.1 km/h 58 % 0 mm
19:33 -4.3 °C -14.9 °C 34496.6 hPa SW 4.2 km/h 7.6 km/h 29 % 0 mm
19:38 -4.4 °C -15.1 °C 34496.6 hPa SW 4.2 km/h 7.6 km/h 29 % 0 mm
19:40 -7.7 °C -12.3 °C 34635.4 hPa ENE 5.1 km/h 5.1 km/h 59 % 0 mm
19:43 -4.4 °C -15.1 °C 34496.6 hPa SW 4.2 km/h 7.6 km/h 29 % 0 mm
19:48 -4.4 °C -15.1 °C 34496.6 hPa SW 4.2 km/h 7.6 km/h 29 % 0 mm
19:50 -7.8 °C -12.3 °C 34635.4 hPa ENE 5.1 km/h 5.1 km/h 59 % 0 mm
19:53 -4.5 °C -15.1 °C 34496.6 hPa SE 4.2 km/h 10.3 km/h 29 % 0 mm
19:58 -4.6 °C -15.2 °C 34533.8 hPa SE 4.2 km/h 10.3 km/h 29 % 0 mm
20:00 -7.8 °C -12.2 °C 34635.4 hPa ENE 5.1 km/h 5.1 km/h 60 % 0 mm
20:03 -4.7 °C -15.3 °C 34533.8 hPa SE 4.2 km/h 10.3 km/h 29 % 0 mm
20:08 -4.7 °C -15.1 °C 34533.8 hPa SW 3.1 km/h 8.5 km/h 30 % 0 mm
20:10 -7.9 °C -12.3 °C 34635.4 hPa ENE 5.1 km/h 5.1 km/h 60 % 0 mm
20:13 -4.8 °C -15.1 °C 34533.8 hPa SW 3.1 km/h 8.5 km/h 30 % 0 mm
20:20 -8 °C -12.2 °C 34635.4 hPa ENE 5.1 km/h 5.1 km/h 61 % 0 mm
20:23 -5.1 °C -14.9 °C 34533.8 hPa SSW 3.1 km/h 12.7 km/h 32 % 0 mm
20:28 -5.3 °C -15 °C 34533.8 hPa SSW 3.1 km/h 12.7 km/h 32 % 0 mm
20:30 -8.1 °C -12.2 °C 34669.3 hPa ENE 5.1 km/h 5.1 km/h 62 % 0 mm
20:33 -5.4 °C -15.1 °C 34533.8 hPa SSW 3.1 km/h 12.7 km/h 32 % 0 mm
20:38 -5.4 °C -14.9 °C 34533.8 hPa SSW 3.1 km/h 12.7 km/h 33 % 0 mm
20:40 -8.2 °C -12.3 °C 34669.3 hPa ENE 5.1 km/h 5.1 km/h 62 % 0 mm
20:43 -5.5 °C -14.7 °C 34533.8 hPa SSW 3.1 km/h 12.7 km/h 34 % 0 mm
20:48 -5.7 °C -14.4 °C 34533.8 hPa SSW 3.1 km/h 12.7 km/h 36 % 0 mm
20:50 -8.2 °C -12.2 °C 34635.4 hPa ENE 5.1 km/h 5.1 km/h 63 % 0 mm
20:53 -5.8 °C -14.1 °C 34533.8 hPa SSW 3.1 km/h 12.7 km/h 38 % 0 mm
20:58 -5.8 °C -13.7 °C 34533.8 hPa SSW 3.1 km/h 12.7 km/h 40 % 0 mm
21:00 -8.6 °C -12.7 °C 34635.4 hPa ENE 5.1 km/h 5.1 km/h 62 % 0 mm
21:03 -6 °C -13.7 °C 34533.8 hPa SSW 3.1 km/h 12.7 km/h 41 % 0 mm
21:08 -6.1 °C -13.7 °C 34533.8 hPa SSW 3.1 km/h 12.7 km/h 41 % 0 mm
21:10 -8.7 °C -12.3 °C 34635.4 hPa Calm   5.1 km/h 65 % 0 mm
21:13 -6.1 °C -13.6 °C 34533.8 hPa SSW 3.1 km/h 12.7 km/h 42 % 0 mm
21:18 -6.2 °C -13.4 °C 34533.8 hPa SSW 3.1 km/h 12.7 km/h 43 % 0 mm
21:20 -8.7 °C -12.3 °C 34635.4 hPa Calm   2.6 km/h 66 % 0 mm
21:23 -6.3 °C -13.4 °C 34533.8 hPa SSW 3.1 km/h 12.7 km/h 44 % 0 mm
21:28 -6.4 °C -13.5 °C 34533.8 hPa SSW 3.1 km/h 12.7 km/h 44 % 0 mm
21:30 -8.8 °C -12.3 °C 34635.4 hPa Calm   2.6 km/h 66 % 0 mm
21:33 -6.5 °C -13.4 °C 34533.8 hPa SSW 3.1 km/h 12.7 km/h 45 % 0 mm
21:38 -6.6 °C -13.2 °C 34533.8 hPa SSW 3.1 km/h 12.7 km/h 46 % 0 mm
21:40 -8.7 °C -12.1 °C 34635.4 hPa ENE 2.6 km/h 2.6 km/h 67 % 0 mm
21:43 -6.7 °C -13.2 °C 34533.8 hPa SSW 3.1 km/h 12.7 km/h 47 % 0 mm
21:48 -6.7 °C -13 °C 34533.8 hPa SSW 3.1 km/h 12.7 km/h 48 % 0 mm
21:50 -8.8 °C -12.2 °C 34635.4 hPa Calm   2.6 km/h 67 % 0 mm
21:53 -6.7 °C -13 °C 34533.8 hPa SSW 3.1 km/h 12.7 km/h 48 % 0 mm
21:58 -6.8 °C -13.1 °C 34567.7 hPa SSW 3.1 km/h 12.7 km/h 48 % 0 mm
22:00 -8.8 °C -12.3 °C 34601.5 hPa Calm   2.6 km/h 67 % 0 mm
22:03 -6.9 °C -13 °C 34567.7 hPa SSW 3.1 km/h 12.7 km/h 49 % 0 mm
22:08 -6.9 °C -13.1 °C 34567.7 hPa SSW 3.1 km/h 12.7 km/h 49 % 0 mm
22:10 -8.9 °C -12.3 °C 34601.5 hPa Calm   2.6 km/h 67 % 0 mm
22:13 -7 °C -13.1 °C 34601.5 hPa SSW 3.1 km/h 12.7 km/h 49 % 0 mm
22:18 -7.1 °C -13.1 °C 34601.5 hPa SSW 3.1 km/h 12.7 km/h 50 % 0 mm
22:23 -7.2 °C -13.1 °C 34601.5 hPa SSW 3.1 km/h 12.7 km/h 50 % 0 mm
22:28 -7.2 °C -13.2 °C 34601.5 hPa SSW 3.1 km/h 12.7 km/h 50 % 0 mm
22:30 -9.1 °C -12.3 °C 34601.5 hPa Calm   2.6 km/h 68 % 0 mm
22:33 -7.2 °C -13.2 °C 34601.5 hPa SW 6.3 km/h 6.3 km/h 50 % 0 mm
22:38 -7.3 °C -12.9 °C 34601.5 hPa SW 6.3 km/h 6.3 km/h 52 % 0 mm
22:40 -9.1 °C -12.4 °C 34601.5 hPa Calm   2.6 km/h 68 % 0 mm
22:43 -7.3 °C -12.9 °C 34567.7 hPa SW 6.3 km/h 6.3 km/h 52 % 0 mm
22:48 -7.4 °C -12.8 °C 34567.7 hPa SW 6.3 km/h 6.3 km/h 53 % 0 mm
22:50 -9.2 °C -12.4 °C 34601.5 hPa Calm   2.6 km/h 68 % 0 mm
22:53 -7.4 °C -12.9 °C 34567.7 hPa NE 3.7 km/h 3.7 km/h 53 % 0 mm
22:58 -7.4 °C -12.9 °C 34601.5 hPa Calm     53 % 0 mm
23:00 -9.3 °C -12.7 °C 34601.5 hPa Calm   2.6 km/h 67 % 0 mm
23:03 -7.4 °C -12.9 °C 34601.5 hPa Calm   2.3 km/h 53 % 0 mm
23:08 -7.4 °C -12.9 °C 34601.5 hPa Calm   2.3 km/h 53 % 0 mm
23:10 -9.4 °C -12.7 °C 34601.5 hPa Calm   2.6 km/h 68 % 0 mm
23:13 -7.5 °C -12.9 °C 34601.5 hPa Calm   2.3 km/h 53 % 0 mm
23:18 -7.6 °C -12.8 °C 34601.5 hPa Calm   2.3 km/h 54 % 0 mm
23:20 -9.5 °C -12.7 °C 34601.5 hPa Calm   2.6 km/h 68 % 0 mm
23:23 -7.6 °C -12.9 °C 34601.5 hPa Calm   2.3 km/h 54 % 0 mm
23:28 -7.7 °C -12.9 °C 34601.5 hPa Calm   2.3 km/h 54 % 0 mm
23:30 -9.7 °C -12.8 °C 34601.5 hPa Calm   2.6 km/h 69 % 0 mm
23:33 -7.7 °C -12.8 °C 34601.5 hPa Calm   2.3 km/h 55 % 0 mm
23:38 -7.7 °C -12.8 °C 34601.5 hPa Calm   2.3 km/h 55 % 0 mm
23:40 -9.7 °C -12.8 °C 34601.5 hPa Calm     69 % 0 mm
23:43 -7.7 °C -12.8 °C 34635.4 hPa Calm   2.3 km/h 55 % 0 mm
23:48 -7.7 °C -12.8 °C 34635.4 hPa Calm   2.3 km/h 55 % 0 mm
23:50 -9.9 °C -13.1 °C 34601.5 hPa South 2.6 km/h 5.1 km/h 68 % 0 mm
23:53 -7.7 °C -12.8 °C 34635.4 hPa Calm   2.3 km/h 55 % 0 mm
23:58 -7.7 °C -12.8 °C 34635.4 hPa Calm   2.3 km/h 55 % 0 mm
Meteo Sesrovires
Elogis d' Weather Underground - 3.75 mb

Guio original per  Jim McMurry - jmcmurry@mwt.net Adaptat per a la plantilla per  Wim van der Kuil - Leuven-Template.eu

Trobareu la nostra informacio del temps tambe a:

Weather Underground

AWEKAS